sensor_id;sensor_type;location;lat;lon;timestamp;temperature;humidity
70986;DHT22;58645;43.068;25.610;2024-02-23T00:00:27;9.70;97.30
70986;DHT22;58645;43.068;25.610;2024-02-23T00:02:53;9.70;96.90
70986;DHT22;58645;43.068;25.610;2024-02-23T00:05:21;9.70;97.20
70986;DHT22;58645;43.068;25.610;2024-02-23T00:07:47;9.70;97.00
70986;DHT22;58645;43.068;25.610;2024-02-23T00:10:13;9.70;96.80
70986;DHT22;58645;43.068;25.610;2024-02-23T00:12:39;9.70;96.70
70986;DHT22;58645;43.068;25.610;2024-02-23T00:15:05;9.70;95.70
70986;DHT22;58645;43.068;25.610;2024-02-23T00:17:30;9.70;95.40
70986;DHT22;58645;43.068;25.610;2024-02-23T00:19:56;9.70;95.60
70986;DHT22;58645;43.068;25.610;2024-02-23T00:22:22;9.70;95.90
70986;DHT22;58645;43.068;25.610;2024-02-23T00:24:48;9.70;95.70
70986;DHT22;58645;43.068;25.610;2024-02-23T00:27:14;9.70;95.60
70986;DHT22;58645;43.068;25.610;2024-02-23T00:29:39;9.70;95.70
70986;DHT22;58645;43.068;25.610;2024-02-23T00:32:06;9.70;95.80
70986;DHT22;58645;43.068;25.610;2024-02-23T00:34:32;9.70;95.50
70986;DHT22;58645;43.068;25.610;2024-02-23T00:36:58;9.70;95.80
70986;DHT22;58645;43.068;25.610;2024-02-23T00:39:23;9.70;96.20
70986;DHT22;58645;43.068;25.610;2024-02-23T00:41:49;9.70;95.90
70986;DHT22;58645;43.068;25.610;2024-02-23T00:44:15;9.80;95.20
70986;DHT22;58645;43.068;25.610;2024-02-23T00:46:41;9.70;95.40
70986;DHT22;58645;43.068;25.610;2024-02-23T00:49:07;9.70;95.50
70986;DHT22;58645;43.068;25.610;2024-02-23T00:51:33;9.80;95.60
70986;DHT22;58645;43.068;25.610;2024-02-23T00:53:58;9.70;95.90
70986;DHT22;58645;43.068;25.610;2024-02-23T00:56:25;9.70;95.60
70986;DHT22;58645;43.068;25.610;2024-02-23T00:58:51;9.70;95.30
70986;DHT22;58645;43.068;25.610;2024-02-23T01:01:17;9.70;95.90
70986;DHT22;58645;43.068;25.610;2024-02-23T01:03:42;9.70;95.50
70986;DHT22;58645;43.068;25.610;2024-02-23T01:06:08;9.70;95.60
70986;DHT22;58645;43.068;25.610;2024-02-23T01:08:34;9.70;95.40
70986;DHT22;58645;43.068;25.610;2024-02-23T01:11:01;9.80;95.40
70986;DHT22;58645;43.068;25.610;2024-02-23T01:13:27;9.80;95.40
70986;DHT22;58645;43.068;25.610;2024-02-23T01:15:52;9.80;95.50
70986;DHT22;58645;43.068;25.610;2024-02-23T01:18:19;9.80;95.80
70986;DHT22;58645;43.068;25.610;2024-02-23T01:20:45;9.80;95.90
70986;DHT22;58645;43.068;25.610;2024-02-23T01:23:11;9.80;95.40
70986;DHT22;58645;43.068;25.610;2024-02-23T01:25:37;9.80;95.40
70986;DHT22;58645;43.068;25.610;2024-02-23T01:28:03;9.80;95.40
70986;DHT22;58645;43.068;25.610;2024-02-23T01:30:29;9.80;94.80
70986;DHT22;58645;43.068;25.610;2024-02-23T01:32:55;9.80;95.00
70986;DHT22;58645;43.068;25.610;2024-02-23T01:35:20;9.80;95.30
70986;DHT22;58645;43.068;25.610;2024-02-23T01:37:46;9.80;95.50
70986;DHT22;58645;43.068;25.610;2024-02-23T01:40:12;9.80;95.80
70986;DHT22;58645;43.068;25.610;2024-02-23T01:42:38;9.80;95.90
70986;DHT22;58645;43.068;25.610;2024-02-23T01:45:04;9.80;95.80
70986;DHT22;58645;43.068;25.610;2024-02-23T01:47:30;9.80;95.40
70986;DHT22;58645;43.068;25.610;2024-02-23T01:49:58;9.80;95.40
70986;DHT22;58645;43.068;25.610;2024-02-23T01:52:24;9.80;95.50
70986;DHT22;58645;43.068;25.610;2024-02-23T01:54:51;9.80;95.50
70986;DHT22;58645;43.068;25.610;2024-02-23T01:57:17;9.70;95.80
70986;DHT22;58645;43.068;25.610;2024-02-23T01:59:44;9.70;95.60
70986;DHT22;58645;43.068;25.610;2024-02-23T02:02:10;9.70;96.10
70986;DHT22;58645;43.068;25.610;2024-02-23T02:04:36;9.70;96.40
70986;DHT22;58645;43.068;25.610;2024-02-23T02:07:02;9.60;97.00
70986;DHT22;58645;43.068;25.610;2024-02-23T02:09:27;9.60;97.00
70986;DHT22;58645;43.068;25.610;2024-02-23T02:11:53;9.70;97.00
70986;DHT22;58645;43.068;25.610;2024-02-23T02:14:19;9.70;96.70
70986;DHT22;58645;43.068;25.610;2024-02-23T02:16:45;9.70;97.00
70986;DHT22;58645;43.068;25.610;2024-02-23T02:19:11;9.70;96.80
70986;DHT22;58645;43.068;25.610;2024-02-23T02:21:37;9.70;97.30
70986;DHT22;58645;43.068;25.610;2024-02-23T02:24:04;9.60;97.30
70986;DHT22;58645;43.068;25.610;2024-02-23T02:26:31;9.60;97.30
70986;DHT22;58645;43.068;25.610;2024-02-23T02:28:56;9.60;97.30
70986;DHT22;58645;43.068;25.610;2024-02-23T02:31:22;9.60;97.50
70986;DHT22;58645;43.068;25.610;2024-02-23T02:33:48;9.60;96.10
70986;DHT22;58645;43.068;25.610;2024-02-23T02:36:14;9.70;95.30
70986;DHT22;58645;43.068;25.610;2024-02-23T02:38:39;9.60;95.20
70986;DHT22;58645;43.068;25.610;2024-02-23T02:41:05;9.00;94.60
70986;DHT22;58645;43.068;25.610;2024-02-23T02:43:31;9.60;95.00
70986;DHT22;58645;43.068;25.610;2024-02-23T02:45:57;9.60;94.80
70986;DHT22;58645;43.068;25.610;2024-02-23T02:48:24;9.60;95.50
70986;DHT22;58645;43.068;25.610;2024-02-23T02:50:50;9.60;95.30
70986;DHT22;58645;43.068;25.610;2024-02-23T02:53:16;9.60;95.70
70986;DHT22;58645;43.068;25.610;2024-02-23T02:55:43;9.60;95.10
70986;DHT22;58645;43.068;25.610;2024-02-23T02:58:11;9.60;94.70
70986;DHT22;58645;43.068;25.610;2024-02-23T03:00:36;9.60;94.30
70986;DHT22;58645;43.068;25.610;2024-02-23T03:03:02;9.60;94.40
70986;DHT22;58645;43.068;25.610;2024-02-23T03:05:28;9.60;94.00
70986;DHT22;58645;43.068;25.610;2024-02-23T03:07:54;9.60;93.80
70986;DHT22;58645;43.068;25.610;2024-02-23T03:10:19;9.70;94.00
70986;DHT22;58645;43.068;25.610;2024-02-23T03:12:45;9.70;93.20
70986;DHT22;58645;43.068;25.610;2024-02-23T03:15:11;9.70;93.00
70986;DHT22;58645;43.068;25.610;2024-02-23T03:17:36;9.80;91.90
70986;DHT22;58645;43.068;25.610;2024-02-23T03:20:03;9.80;91.20
70986;DHT22;58645;43.068;25.610;2024-02-23T03:22:38;9.80;90.40
70986;DHT22;58645;43.068;25.610;2024-02-23T03:25:04;9.90;90.00
70986;DHT22;58645;43.068;25.610;2024-02-23T03:27:35;9.90;90.00
70986;DHT22;58645;43.068;25.610;2024-02-23T03:30:06;9.90;89.20
70986;DHT22;58645;43.068;25.610;2024-02-23T03:32:35;9.90;89.40
70986;DHT22;58645;43.068;25.610;2024-02-23T03:35:05;9.80;89.20
70986;DHT22;58645;43.068;25.610;2024-02-23T03:37:32;9.90;89.60
70986;DHT22;58645;43.068;25.610;2024-02-23T03:39:58;9.80;88.60
70986;DHT22;58645;43.068;25.610;2024-02-23T03:42:25;9.80;88.90
70986;DHT22;58645;43.068;25.610;2024-02-23T03:44:51;9.80;88.80
70986;DHT22;58645;43.068;25.610;2024-02-23T03:47:17;9.80;88.90
70986;DHT22;58645;43.068;25.610;2024-02-23T03:49:43;9.80;88.50
70986;DHT22;58645;43.068;25.610;2024-02-23T03:52:09;9.70;89.10
70986;DHT22;58645;43.068;25.610;2024-02-23T03:54:35;9.70;88.60
70986;DHT22;58645;43.068;25.610;2024-02-23T03:57:00;9.70;88.50
70986;DHT22;58645;43.068;25.610;2024-02-23T03:59:26;9.70;88.60
70986;DHT22;58645;43.068;25.610;2024-02-23T04:01:52;9.70;88.50
70986;DHT22;58645;43.068;25.610;2024-02-23T04:04:18;9.70;88.10
70986;DHT22;58645;43.068;25.610;2024-02-23T04:06:44;9.70;88.30
70986;DHT22;58645;43.068;25.610;2024-02-23T04:09:09;9.70;88.40
70986;DHT22;58645;43.068;25.610;2024-02-23T04:11:35;9.70;88.90
70986;DHT22;58645;43.068;25.610;2024-02-23T04:14:01;9.60;89.10
70986;DHT22;58645;43.068;25.610;2024-02-23T04:16:27;9.60;89.60
70986;DHT22;58645;43.068;25.610;2024-02-23T04:18:54;9.50;90.10
70986;DHT22;58645;43.068;25.610;2024-02-23T04:21:20;9.50;89.70
70986;DHT22;58645;43.068;25.610;2024-02-23T04:23:45;9.50;89.40
70986;DHT22;58645;43.068;25.610;2024-02-23T04:26:11;9.50;90.20
70986;DHT22;58645;43.068;25.610;2024-02-23T04:28:41;9.50;90.10
70986;DHT22;58645;43.068;25.610;2024-02-23T04:31:08;9.40;90.30
70986;DHT22;58645;43.068;25.610;2024-02-23T04:33:38;9.40;90.80
70986;DHT22;58645;43.068;25.610;2024-02-23T04:36:04;9.40;90.90
70986;DHT22;58645;43.068;25.610;2024-02-23T04:38:30;9.30;91.10
70986;DHT22;58645;43.068;25.610;2024-02-23T04:40:57;9.30;90.80
70986;DHT22;58645;43.068;25.610;2024-02-23T04:43:24;9.30;91.00
70986;DHT22;58645;43.068;25.610;2024-02-23T04:45:50;9.20;90.80
70986;DHT22;58645;43.068;25.610;2024-02-23T04:48:16;9.20;91.00
70986;DHT22;58645;43.068;25.610;2024-02-23T04:50:42;9.10;91.00
70986;DHT22;58645;43.068;25.610;2024-02-23T04:53:08;9.10;91.40
70986;DHT22;58645;43.068;25.610;2024-02-23T04:55:33;9.10;92.00
70986;DHT22;58645;43.068;25.610;2024-02-23T04:57:59;9.00;91.90
70986;DHT22;58645;43.068;25.610;2024-02-23T05:00:25;9.00;92.00
70986;DHT22;58645;43.068;25.610;2024-02-23T05:02:58;9.00;91.80
70986;DHT22;58645;43.068;25.610;2024-02-23T05:05:24;8.90;91.90
70986;DHT22;58645;43.068;25.610;2024-02-23T05:07:49;8.90;91.60
70986;DHT22;58645;43.068;25.610;2024-02-23T05:10:16;8.90;91.90
70986;DHT22;58645;43.068;25.610;2024-02-23T05:12:42;8.90;91.70
70986;DHT22;58645;43.068;25.610;2024-02-23T05:15:08;8.90;91.30
70986;DHT22;58645;43.068;25.610;2024-02-23T05:17:34;8.90;91.50
70986;DHT22;58645;43.068;25.610;2024-02-23T05:20:00;8.90;91.80
70986;DHT22;58645;43.068;25.610;2024-02-23T05:22:25;9.00;91.80
70986;DHT22;58645;43.068;25.610;2024-02-23T05:24:51;9.00;91.00
70986;DHT22;58645;43.068;25.610;2024-02-23T05:27:17;9.00;90.70
70986;DHT22;58645;43.068;25.610;2024-02-23T05:29:43;9.10;90.60
70986;DHT22;58645;43.068;25.610;2024-02-23T05:32:09;9.10;90.20
70986;DHT22;58645;43.068;25.610;2024-02-23T05:34:36;9.10;89.70
70986;DHT22;58645;43.068;25.610;2024-02-23T05:37:02;9.30;90.10
70986;DHT22;58645;43.068;25.610;2024-02-23T05:39:28;9.30;90.30
70986;DHT22;58645;43.068;25.610;2024-02-23T05:41:54;9.40;90.00
70986;DHT22;58645;43.068;25.610;2024-02-23T05:44:20;9.60;89.30
70986;DHT22;58645;43.068;25.610;2024-02-23T05:46:46;9.70;91.40
70986;DHT22;58645;43.068;25.610;2024-02-23T05:49:12;9.80;90.20
70986;DHT22;58645;43.068;25.610;2024-02-23T05:51:38;10.10;88.60
70986;DHT22;58645;43.068;25.610;2024-02-23T05:54:03;10.30;88.50
70986;DHT22;58645;43.068;25.610;2024-02-23T05:56:29;10.90;87.10
70986;DHT22;58645;43.068;25.610;2024-02-23T05:58:55;12.10;82.40
70986;DHT22;58645;43.068;25.610;2024-02-23T06:01:21;13.30;76.30
70986;DHT22;58645;43.068;25.610;2024-02-23T06:03:47;14.70;69.30
70986;DHT22;58645;43.068;25.610;2024-02-23T06:06:12;15.90;64.20
70986;DHT22;58645;43.068;25.610;2024-02-23T06:08:39;16.80;61.20
70986;DHT22;58645;43.068;25.610;2024-02-23T06:11:05;17.90;56.00
70986;DHT22;58645;43.068;25.610;2024-02-23T06:13:31;18.80;52.90
70986;DHT22;58645;43.068;25.610;2024-02-23T06:15:57;19.20;49.90
70986;DHT22;58645;43.068;25.610;2024-02-23T06:18:23;19.00;49.70
70986;DHT22;58645;43.068;25.610;2024-02-23T06:20:50;19.50;49.10
70986;DHT22;58645;43.068;25.610;2024-02-23T06:23:16;19.40;50.00
70986;DHT22;58645;43.068;25.610;2024-02-23T06:25:41;18.60;48.80
70986;DHT22;58645;43.068;25.610;2024-02-23T06:28:07;19.70;47.50
70986;DHT22;58645;43.068;25.610;2024-02-23T06:30:33;20.20;46.00
70986;DHT22;58645;43.068;25.610;2024-02-23T06:32:59;20.50;46.50
70986;DHT22;58645;43.068;25.610;2024-02-23T06:35:32;21.20;45.00
70986;DHT22;58645;43.068;25.610;2024-02-23T06:37:58;21.50;44.40
70986;DHT22;58645;43.068;25.610;2024-02-23T06:40:24;22.00;42.30
70986;DHT22;58645;43.068;25.610;2024-02-23T06:42:53;22.20;41.30
70986;DHT22;58645;43.068;25.610;2024-02-23T06:45:19;22.50;41.00
70986;DHT22;58645;43.068;25.610;2024-02-23T06:47:45;22.10;40.20
70986;DHT22;58645;43.068;25.610;2024-02-23T06:50:11;21.80;41.40
70986;DHT22;58645;43.068;25.610;2024-02-23T06:52:37;22.20;40.60
70986;DHT22;58645;43.068;25.610;2024-02-23T06:55:03;22.50;39.70
70986;DHT22;58645;43.068;25.610;2024-02-23T06:57:29;22.80;39.60
70986;DHT22;58645;43.068;25.610;2024-02-23T06:59:56;23.30;38.60
70986;DHT22;58645;43.068;25.610;2024-02-23T07:02:22;23.70;36.60
70986;DHT22;58645;43.068;25.610;2024-02-23T07:04:47;23.90;36.90
70986;DHT22;58645;43.068;25.610;2024-02-23T07:07:16;24.30;35.80
70986;DHT22;58645;43.068;25.610;2024-02-23T07:09:42;24.30;36.70
70986;DHT22;58645;43.068;25.610;2024-02-23T07:12:08;24.30;36.00
70986;DHT22;58645;43.068;25.610;2024-02-23T07:14:35;24.60;35.80
70986;DHT22;58645;43.068;25.610;2024-02-23T07:17:01;24.80;34.70
70986;DHT22;58645;43.068;25.610;2024-02-23T07:19:27;25.30;34.00
70986;DHT22;58645;43.068;25.610;2024-02-23T07:21:53;26.30;31.80
70986;DHT22;58645;43.068;25.610;2024-02-23T07:24:18;26.10;31.30
70986;DHT22;58645;43.068;25.610;2024-02-23T07:26:44;26.10;31.60
70986;DHT22;58645;43.068;25.610;2024-02-23T07:29:10;26.30;30.50
70986;DHT22;58645;43.068;25.610;2024-02-23T07:31:36;26.80;30.40
70986;DHT22;58645;43.068;25.610;2024-02-23T07:34:01;27.50;29.80
70986;DHT22;58645;43.068;25.610;2024-02-23T07:36:27;27.30;31.10
70986;DHT22;58645;43.068;25.610;2024-02-23T07:38:53;27.50;30.20
70986;DHT22;58645;43.068;25.610;2024-02-23T07:41:18;27.90;28.60
70986;DHT22;58645;43.068;25.610;2024-02-23T07:43:44;27.90;28.70
70986;DHT22;58645;43.068;25.610;2024-02-23T07:46:10;28.30;29.10
70986;DHT22;58645;43.068;25.610;2024-02-23T07:48:36;28.30;29.70
70986;DHT22;58645;43.068;25.610;2024-02-23T07:51:03;28.20;28.40
70986;DHT22;58645;43.068;25.610;2024-02-23T07:53:29;28.20;27.80
70986;DHT22;58645;43.068;25.610;2024-02-23T07:55:59;28.60;26.80
70986;DHT22;58645;43.068;25.610;2024-02-23T07:58:27;28.90;27.60
70986;DHT22;58645;43.068;25.610;2024-02-23T08:00:53;28.00;28.30
70986;DHT22;58645;43.068;25.610;2024-02-23T08:03:19;28.00;26.30
70986;DHT22;58645;43.068;25.610;2024-02-23T08:05:45;27.80;26.70
70986;DHT22;58645;43.068;25.610;2024-02-23T08:08:11;28.30;27.70
70986;DHT22;58645;43.068;25.610;2024-02-23T08:10:36;28.30;27.60
70986;DHT22;58645;43.068;25.610;2024-02-23T08:13:02;28.60;26.90
70986;DHT22;58645;43.068;25.610;2024-02-23T08:15:28;28.70;26.20
70986;DHT22;58645;43.068;25.610;2024-02-23T08:17:54;28.70;26.00
70986;DHT22;58645;43.068;25.610;2024-02-23T08:20:19;29.40;25.20
70986;DHT22;58645;43.068;25.610;2024-02-23T08:22:45;29.50;24.30
70986;DHT22;58645;43.068;25.610;2024-02-23T08:25:11;29.20;25.70
70986;DHT22;58645;43.068;25.610;2024-02-23T08:27:37;29.60;24.80
70986;DHT22;58645;43.068;25.610;2024-02-23T08:30:04;29.20;24.20
70986;DHT22;58645;43.068;25.610;2024-02-23T08:32:30;29.50;24.60
70986;DHT22;58645;43.068;25.610;2024-02-23T08:34:55;29.70;25.40
70986;DHT22;58645;43.068;25.610;2024-02-23T08:37:37;29.50;24.40
70986;DHT22;58645;43.068;25.610;2024-02-23T08:40:09;29.50;26.10
70986;DHT22;58645;43.068;25.610;2024-02-23T08:42:41;30.00;24.90
70986;DHT22;58645;43.068;25.610;2024-02-23T08:45:08;30.20;24.70
70986;DHT22;58645;43.068;25.610;2024-02-23T08:47:35;29.70;24.10
70986;DHT22;58645;43.068;25.610;2024-02-23T08:50:02;29.80;24.40
70986;DHT22;58645;43.068;25.610;2024-02-23T08:52:28;29.70;25.60
70986;DHT22;58645;43.068;25.610;2024-02-23T08:54:54;29.40;24.30
70986;DHT22;58645;43.068;25.610;2024-02-23T08:57:19;29.20;25.80
70986;DHT22;58645;43.068;25.610;2024-02-23T08:59:46;29.70;25.40
70986;DHT22;58645;43.068;25.610;2024-02-23T09:02:12;29.30;24.40
70986;DHT22;58645;43.068;25.610;2024-02-23T09:04:38;29.40;24.90
70986;DHT22;58645;43.068;25.610;2024-02-23T09:07:07;29.20;24.20
70986;DHT22;58645;43.068;25.610;2024-02-23T09:09:33;29.30;24.00
70986;DHT22;58645;43.068;25.610;2024-02-23T09:11:59;30.20;24.10
70986;DHT22;58645;43.068;25.610;2024-02-23T09:14:25;30.40;23.30
70986;DHT22;58645;43.068;25.610;2024-02-23T09:16:53;29.90;21.50
70986;DHT22;58645;43.068;25.610;2024-02-23T09:19:19;30.00;22.80
70986;DHT22;58645;43.068;25.610;2024-02-23T09:21:46;30.40;22.10
70986;DHT22;58645;43.068;25.610;2024-02-23T09:24:21;30.50;21.20
70986;DHT22;58645;43.068;25.610;2024-02-23T09:26:56;30.80;20.00
70986;DHT22;58645;43.068;25.610;2024-02-23T09:29:28;31.10;20.60
70986;DHT22;58645;43.068;25.610;2024-02-23T09:31:54;31.50;20.00
70986;DHT22;58645;43.068;25.610;2024-02-23T09:34:22;31.40;20.70
70986;DHT22;58645;43.068;25.610;2024-02-23T09:36:51;30.50;20.00
70986;DHT22;58645;43.068;25.610;2024-02-23T09:39:17;30.80;19.70
70986;DHT22;58645;43.068;25.610;2024-02-23T09:41:50;30.80;20.70
70986;DHT22;58645;43.068;25.610;2024-02-23T09:44:16;30.90;20.80
70986;DHT22;58645;43.068;25.610;2024-02-23T09:46:43;31.30;21.30
70986;DHT22;58645;43.068;25.610;2024-02-23T09:49:12;31.20;22.00
70986;DHT22;58645;43.068;25.610;2024-02-23T09:51:57;31.00;21.30
70986;DHT22;58645;43.068;25.610;2024-02-23T09:54:49;30.90;21.10
70986;DHT22;58645;43.068;25.610;2024-02-23T09:57:29;30.80;21.00
70986;DHT22;58645;43.068;25.610;2024-02-23T10:00:17;31.00;21.20
70986;DHT22;58645;43.068;25.610;2024-02-23T10:02:43;31.00;22.10
70986;DHT22;58645;43.068;25.610;2024-02-23T10:05:14;30.50;21.00
70986;DHT22;58645;43.068;25.610;2024-02-23T10:07:41;31.00;21.30
70986;DHT22;58645;43.068;25.610;2024-02-23T10:10:08;31.10;20.50
70986;DHT22;58645;43.068;25.610;2024-02-23T10:12:35;31.30;21.90
70986;DHT22;58645;43.068;25.610;2024-02-23T10:15:03;31.30;20.70
70986;DHT22;58645;43.068;25.610;2024-02-23T10:17:32;30.80;20.80
70986;DHT22;58645;43.068;25.610;2024-02-23T10:19:59;30.70;20.30
70986;DHT22;58645;43.068;25.610;2024-02-23T10:22:31;30.80;20.80
70986;DHT22;58645;43.068;25.610;2024-02-23T10:24:57;31.10;20.50
70986;DHT22;58645;43.068;25.610;2024-02-23T10:27:23;30.80;18.40
70986;DHT22;58645;43.068;25.610;2024-02-23T10:29:50;31.00;20.00
70986;DHT22;58645;43.068;25.610;2024-02-23T10:32:18;31.40;19.00
70986;DHT22;58645;43.068;25.610;2024-02-23T10:34:48;31.60;18.80
70986;DHT22;58645;43.068;25.610;2024-02-23T10:37:17;31.20;18.90
70986;DHT22;58645;43.068;25.610;2024-02-23T10:39:44;31.30;19.60
70986;DHT22;58645;43.068;25.610;2024-02-23T10:42:12;31.00;21.20
70986;DHT22;58645;43.068;25.610;2024-02-23T10:44:44;31.10;19.30
70986;DHT22;58645;43.068;25.610;2024-02-23T10:47:11;31.20;18.60
70986;DHT22;58645;43.068;25.610;2024-02-23T10:49:37;31.30;19.20
70986;DHT22;58645;43.068;25.610;2024-02-23T10:52:04;31.00;19.10
70986;DHT22;58645;43.068;25.610;2024-02-23T10:54:31;31.00;19.40
70986;DHT22;58645;43.068;25.610;2024-02-23T10:56:57;31.20;19.10
70986;DHT22;58645;43.068;25.610;2024-02-23T10:59:23;31.10;19.10
70986;DHT22;58645;43.068;25.610;2024-02-23T11:01:53;31.00;20.30
70986;DHT22;58645;43.068;25.610;2024-02-23T11:04:24;30.90;17.90
70986;DHT22;58645;43.068;25.610;2024-02-23T11:06:52;30.40;18.30
70986;DHT22;58645;43.068;25.610;2024-02-23T11:09:21;30.90;18.00
70986;DHT22;58645;43.068;25.610;2024-02-23T11:11:54;30.70;18.30
70986;DHT22;58645;43.068;25.610;2024-02-23T11:14:34;31.00;18.90
70986;DHT22;58645;43.068;25.610;2024-02-23T11:17:18;30.70;18.70
70986;DHT22;58645;43.068;25.610;2024-02-23T11:19:46;30.40;18.90
70986;DHT22;58645;43.068;25.610;2024-02-23T11:22:14;30.20;18.60
70986;DHT22;58645;43.068;25.610;2024-02-23T11:24:44;29.90;18.10
70986;DHT22;58645;43.068;25.610;2024-02-23T11:27:19;29.30;19.30
70986;DHT22;58645;43.068;25.610;2024-02-23T11:29:48;29.40;19.10
70986;DHT22;58645;43.068;25.610;2024-02-23T11:32:41;30.30;19.00
70986;DHT22;58645;43.068;25.610;2024-02-23T11:35:10;29.70;18.60
70986;DHT22;58645;43.068;25.610;2024-02-23T11:37:49;30.00;19.10
70986;DHT22;58645;43.068;25.610;2024-02-23T11:40:26;30.30;20.50
70986;DHT22;58645;43.068;25.610;2024-02-23T11:42:52;30.10;20.20
70986;DHT22;58645;43.068;25.610;2024-02-23T11:45:18;30.30;20.80
70986;DHT22;58645;43.068;25.610;2024-02-23T11:47:43;29.90;20.90
70986;DHT22;58645;43.068;25.610;2024-02-23T11:50:10;29.60;21.10
70986;DHT22;58645;43.068;25.610;2024-02-23T11:52:37;29.50;20.20
70986;DHT22;58645;43.068;25.610;2024-02-23T11:55:04;29.10;20.00
70986;DHT22;58645;43.068;25.610;2024-02-23T11:57:32;29.20;20.00
70986;DHT22;58645;43.068;25.610;2024-02-23T11:59:57;29.50;19.20
70986;DHT22;58645;43.068;25.610;2024-02-23T12:02:24;30.10;19.70
70986;DHT22;58645;43.068;25.610;2024-02-23T12:04:58;30.30;18.70
70986;DHT22;58645;43.068;25.610;2024-02-23T12:07:24;29.10;19.20
70986;DHT22;58645;43.068;25.610;2024-02-23T12:09:52;29.00;20.00
70986;DHT22;58645;43.068;25.610;2024-02-23T12:12:18;29.30;19.90
70986;DHT22;58645;43.068;25.610;2024-02-23T12:14:44;29.90;19.20
70986;DHT22;58645;43.068;25.610;2024-02-23T12:17:10;30.10;20.10
70986;DHT22;58645;43.068;25.610;2024-02-23T12:19:44;30.50;18.00
70986;DHT22;58645;43.068;25.610;2024-02-23T12:22:10;30.70;16.30
70986;DHT22;58645;43.068;25.610;2024-02-23T12:24:41;28.50;18.70
70986;DHT22;58645;43.068;25.610;2024-02-23T12:27:07;28.60;20.80
70986;DHT22;58645;43.068;25.610;2024-02-23T12:29:33;28.50;18.20
70986;DHT22;58645;43.068;25.610;2024-02-23T12:32:05;28.40;18.90
70986;DHT22;58645;43.068;25.610;2024-02-23T12:34:32;28.60;20.40
70986;DHT22;58645;43.068;25.610;2024-02-23T12:36:58;28.40;21.20
70986;DHT22;58645;43.068;25.610;2024-02-23T12:39:24;27.60;22.50
70986;DHT22;58645;43.068;25.610;2024-02-23T12:41:49;27.10;23.10
70986;DHT22;58645;43.068;25.610;2024-02-23T12:44:16;26.50;24.00
70986;DHT22;58645;43.068;25.610;2024-02-23T12:46:42;25.80;24.80
70986;DHT22;58645;43.068;25.610;2024-02-23T12:49:08;25.10;26.00
70986;DHT22;58645;43.068;25.610;2024-02-23T12:51:34;24.30;27.00
70986;DHT22;58645;43.068;25.610;2024-02-23T12:54:00;23.90;27.20
70986;DHT22;58645;43.068;25.610;2024-02-23T12:56:26;23.50;28.40
70986;DHT22;58645;43.068;25.610;2024-02-23T12:58:52;23.00;28.70
70986;DHT22;58645;43.068;25.610;2024-02-23T13:01:19;22.50;30.30
70986;DHT22;58645;43.068;25.610;2024-02-23T13:03:45;22.30;30.70
70986;DHT22;58645;43.068;25.610;2024-02-23T13:06:11;21.90;31.40
70986;DHT22;58645;43.068;25.610;2024-02-23T13:08:36;21.40;32.00
70986;DHT22;58645;43.068;25.610;2024-02-23T13:11:04;21.20;32.70
70986;DHT22;58645;43.068;25.610;2024-02-23T13:13:30;21.10;33.50
70986;DHT22;58645;43.068;25.610;2024-02-23T13:15:56;20.80;33.10
70986;DHT22;58645;43.068;25.610;2024-02-23T13:18:22;20.50;33.40
70986;DHT22;58645;43.068;25.610;2024-02-23T13:20:48;20.70;33.50
70986;DHT22;58645;43.068;25.610;2024-02-23T13:23:14;20.40;33.10
70986;DHT22;58645;43.068;25.610;2024-02-23T13:25:41;20.30;33.90
70986;DHT22;58645;43.068;25.610;2024-02-23T13:28:08;20.30;35.00
70986;DHT22;58645;43.068;25.610;2024-02-23T13:30:35;20.30;34.50
70986;DHT22;58645;43.068;25.610;2024-02-23T13:33:01;20.20;34.00
70986;DHT22;58645;43.068;25.610;2024-02-23T13:35:27;20.10;34.30
70986;DHT22;58645;43.068;25.610;2024-02-23T13:37:53;20.10;34.10
70986;DHT22;58645;43.068;25.610;2024-02-23T13:40:20;20.00;35.00
70986;DHT22;58645;43.068;25.610;2024-02-23T13:42:46;19.90;36.00
70986;DHT22;58645;43.068;25.610;2024-02-23T13:45:15;19.80;36.10
70986;DHT22;58645;43.068;25.610;2024-02-23T13:47:42;19.80;36.40
70986;DHT22;58645;43.068;25.610;2024-02-23T13:50:09;19.80;36.30
70986;DHT22;58645;43.068;25.610;2024-02-23T13:52:34;19.80;36.60
70986;DHT22;58645;43.068;25.610;2024-02-23T13:55:00;19.70;36.40
70986;DHT22;58645;43.068;25.610;2024-02-23T13:57:26;19.80;36.40
70986;DHT22;58645;43.068;25.610;2024-02-23T13:59:52;19.70;36.60
70986;DHT22;58645;43.068;25.610;2024-02-23T14:02:25;19.60;36.30
70986;DHT22;58645;43.068;25.610;2024-02-23T14:04:52;19.50;36.70
70986;DHT22;58645;43.068;25.610;2024-02-23T14:07:20;19.30;36.80
70986;DHT22;58645;43.068;25.610;2024-02-23T14:09:46;19.20;37.20
70986;DHT22;58645;43.068;25.610;2024-02-23T14:12:12;19.20;37.30
70986;DHT22;58645;43.068;25.610;2024-02-23T14:14:37;19.20;37.50
70986;DHT22;58645;43.068;25.610;2024-02-23T14:17:03;19.10;37.70
70986;DHT22;58645;43.068;25.610;2024-02-23T14:19:29;19.10;37.50
70986;DHT22;58645;43.068;25.610;2024-02-23T14:21:55;19.10;37.90
70986;DHT22;58645;43.068;25.610;2024-02-23T14:24:21;19.00;38.00
70986;DHT22;58645;43.068;25.610;2024-02-23T14:26:47;19.00;38.00
70986;DHT22;58645;43.068;25.610;2024-02-23T14:29:12;19.00;38.20
70986;DHT22;58645;43.068;25.610;2024-02-23T14:31:38;18.90;37.90
70986;DHT22;58645;43.068;25.610;2024-02-23T14:34:04;18.90;38.20
70986;DHT22;58645;43.068;25.610;2024-02-23T14:36:32;18.80;38.00
70986;DHT22;58645;43.068;25.610;2024-02-23T14:39:00;18.80;38.40
70986;DHT22;58645;43.068;25.610;2024-02-23T14:41:26;18.80;38.60
70986;DHT22;58645;43.068;25.610;2024-02-23T14:43:51;18.70;38.80
70986;DHT22;58645;43.068;25.610;2024-02-23T14:46:17;18.60;39.40
70986;DHT22;58645;43.068;25.610;2024-02-23T14:48:43;18.60;39.40
70986;DHT22;58645;43.068;25.610;2024-02-23T14:51:09;18.60;39.30
70986;DHT22;58645;43.068;25.610;2024-02-23T14:53:36;18.50;39.60
70986;DHT22;58645;43.068;25.610;2024-02-23T14:56:02;18.40;39.40
70986;DHT22;58645;43.068;25.610;2024-02-23T14:58:28;18.40;39.70
70986;DHT22;58645;43.068;25.610;2024-02-23T15:00:54;18.30;39.50
70986;DHT22;58645;43.068;25.610;2024-02-23T15:03:20;18.30;39.90
70986;DHT22;58645;43.068;25.610;2024-02-23T15:05:46;18.30;40.10
70986;DHT22;58645;43.068;25.610;2024-02-23T15:08:11;18.30;40.00
70986;DHT22;58645;43.068;25.610;2024-02-23T15:10:37;18.20;39.90
70986;DHT22;58645;43.068;25.610;2024-02-23T15:13:03;18.20;40.10
70986;DHT22;58645;43.068;25.610;2024-02-23T15:15:29;18.10;40.40
70986;DHT22;58645;43.068;25.610;2024-02-23T15:17:55;18.10;40.70
70986;DHT22;58645;43.068;25.610;2024-02-23T15:20:21;18.00;41.10